sensor_id;sensor_type;location;lat;lon;timestamp;pressure;altitude;pressure_sealevel;temperature;humidity
35806;BME280;21925;44.608;11.580;2023-04-26T00:01:52;101307.75;;;12.10;90.42
35806;BME280;21925;44.608;11.580;2023-04-26T00:04:18;101315.53;;;12.20;89.23
35806;BME280;21925;44.608;11.580;2023-04-26T00:06:43;101303.81;;;11.88;90.22
35806;BME280;21925;44.608;11.580;2023-04-26T00:09:10;101317.34;;;12.04;90.24
35806;BME280;21925;44.608;11.580;2023-04-26T00:11:35;101312.53;;;11.90;90.50
35806;BME280;21925;44.608;11.580;2023-04-26T00:14:01;101317.47;;;12.08;90.35
35806;BME280;21925;44.608;11.580;2023-04-26T00:16:26;101296.06;;;11.90;90.37
35806;BME280;21925;44.608;11.580;2023-04-26T00:18:52;101302.22;;;11.75;91.21
35806;BME280;21925;44.608;11.580;2023-04-26T00:21:18;101283.72;;;11.51;93.95
35806;BME280;21925;44.608;11.580;2023-04-26T00:23:44;101307.94;;;11.70;96.10
35806;BME280;21925;44.608;11.580;2023-04-26T00:26:09;101301.53;;;11.90;93.63
35806;BME280;21925;44.608;11.580;2023-04-26T00:28:35;101294.44;;;11.89;93.24
35806;BME280;21925;44.608;11.580;2023-04-26T00:31:00;101296.06;;;11.90;91.28
35806;BME280;21925;44.608;11.580;2023-04-26T00:33:27;101298.81;;;11.90;90.74
35806;BME280;21925;44.608;11.580;2023-04-26T00:35:52;101278.44;;;11.79;90.36
35806;BME280;21925;44.608;11.580;2023-04-26T00:38:18;101296.75;;;11.87;94.77
35806;BME280;21925;44.608;11.580;2023-04-26T00:40:43;101292.84;;;11.99;91.11
35806;BME280;21925;44.608;11.580;2023-04-26T00:43:09;101288.06;;;12.08;89.18
35806;BME280;21925;44.608;11.580;2023-04-26T00:45:35;101304.19;;;11.74;91.77
35806;BME280;21925;44.608;11.580;2023-04-26T00:48:02;101309.31;;;11.76;93.24
35806;BME280;21925;44.608;11.580;2023-04-26T00:50:28;101294.91;;;11.79;92.43
35806;BME280;21925;44.608;11.580;2023-04-26T00:52:56;101294.34;;;11.85;94.42
35806;BME280;21925;44.608;11.580;2023-04-26T00:55:21;101285.84;;;11.78;92.56
35806;BME280;21925;44.608;11.580;2023-04-26T00:57:47;101295.25;;;11.89;91.53
35806;BME280;21925;44.608;11.580;2023-04-26T01:00:14;101301.34;;;11.94;91.98
35806;BME280;21925;44.608;11.580;2023-04-26T01:02:41;101302.91;;;11.95;93.01
35806;BME280;21925;44.608;11.580;2023-04-26T01:05:07;101295.78;;;11.59;99.68
35806;BME280;21925;44.608;11.580;2023-04-26T01:07:35;101298.56;;;11.71;100.00
35806;BME280;21925;44.608;11.580;2023-04-26T01:10:01;101290.88;;;11.76;99.91
35806;BME280;21925;44.608;11.580;2023-04-26T01:12:30;101299.13;;;11.64;100.00
35806;BME280;21925;44.608;11.580;2023-04-26T01:14:56;101303.19;;;11.14;100.00
35806;BME280;21925;44.608;11.580;2023-04-26T01:17:23;101297.91;;;10.68;100.00
35806;BME280;21925;44.608;11.580;2023-04-26T01:19:50;101311.88;;;9.97;100.00
35806;BME280;21925;44.608;11.580;2023-04-26T01:22:16;101311.91;;;9.26;100.00
35806;BME280;21925;44.608;11.580;2023-04-26T01:24:44;101295.84;;;9.25;100.00
35806;BME280;21925;44.608;11.580;2023-04-26T01:27:10;101304.16;;;9.37;100.00
35806;BME280;21925;44.608;11.580;2023-04-26T01:29:36;101305.06;;;9.57;100.00
35806;BME280;21925;44.608;11.580;2023-04-26T01:32:03;101308.16;;;9.56;100.00
35806;BME280;21925;44.608;11.580;2023-04-26T01:34:28;101311.00;;;10.14;100.00
35806;BME280;21925;44.608;11.580;2023-04-26T01:36:54;101315.44;;;10.55;100.00
35806;BME280;21925;44.608;11.580;2023-04-26T01:39:20;101315.03;;;10.65;100.00
35806;BME280;21925;44.608;11.580;2023-04-26T01:41:45;101318.31;;;10.79;100.00
35806;BME280;21925;44.608;11.580;2023-04-26T01:44:11;101306.75;;;10.94;99.36
35806;BME280;21925;44.608;11.580;2023-04-26T01:46:36;101315.63;;;10.91;99.90
35806;BME280;21925;44.608;11.580;2023-04-26T01:49:03;101332.38;;;10.78;100.00
35806;BME280;21925;44.608;11.580;2023-04-26T01:51:28;101318.72;;;10.69;100.00
35806;BME280;21925;44.608;11.580;2023-04-26T01:53:54;101325.28;;;10.97;100.00
35806;BME280;21925;44.608;11.580;2023-04-26T01:56:22;101334.69;;;11.08;99.82
35806;BME280;21925;44.608;11.580;2023-04-26T01:58:47;101334.28;;;11.18;96.83
35806;BME280;21925;44.608;11.580;2023-04-26T02:01:13;101332.28;;;11.27;96.95
35806;BME280;21925;44.608;11.580;2023-04-26T02:03:39;101334.66;;;10.96;100.00
35806;BME280;21925;44.608;11.580;2023-04-26T02:06:04;101317.34;;;11.16;96.70
35806;BME280;21925;44.608;11.580;2023-04-26T02:08:30;101319.44;;;11.19;93.98
35806;BME280;21925;44.608;11.580;2023-04-26T02:10:55;101322.66;;;11.33;93.75
35806;BME280;21925;44.608;11.580;2023-04-26T02:13:21;101327.69;;;11.31;95.04
35806;BME280;21925;44.608;11.580;2023-04-26T02:15:48;101327.69;;;11.31;95.19
35806;BME280;21925;44.608;11.580;2023-04-26T02:18:14;101337.38;;;10.96;95.27
35806;BME280;21925;44.608;11.580;2023-04-26T02:20:40;101318.19;;;10.96;95.11
35806;BME280;21925;44.608;11.580;2023-04-26T02:23:09;101324.19;;;10.90;96.68
35806;BME280;21925;44.608;11.580;2023-04-26T02:25:36;101336.97;;;10.65;100.00
35806;BME280;21925;44.608;11.580;2023-04-26T02:28:04;101337.56;;;10.91;100.00
35806;BME280;21925;44.608;11.580;2023-04-26T02:30:30;101323.19;;;10.94;99.09
35806;BME280;21925;44.608;11.580;2023-04-26T02:32:57;101343.91;;;11.24;95.08
35806;BME280;21925;44.608;11.580;2023-04-26T02:35:22;101320.66;;;11.10;94.27
35806;BME280;21925;44.608;11.580;2023-04-26T02:37:48;101342.38;;;11.14;94.83
35806;BME280;21925;44.608;11.580;2023-04-26T02:40:18;101340.75;;;11.02;99.32
35806;BME280;21925;44.608;11.580;2023-04-26T02:42:43;101346.34;;;10.85;100.00
35806;BME280;21925;44.608;11.580;2023-04-26T02:45:09;101341.75;;;10.77;100.00
35806;BME280;21925;44.608;11.580;2023-04-26T02:47:35;101347.00;;;10.61;100.00
35806;BME280;21925;44.608;11.580;2023-04-26T02:50:03;101331.78;;;10.72;100.00
35806;BME280;21925;44.608;11.580;2023-04-26T02:52:30;101315.81;;;10.45;100.00
35806;BME280;21925;44.608;11.580;2023-04-26T02:54:55;101347.50;;;10.84;100.00
35806;BME280;21925;44.608;11.580;2023-04-26T02:57:21;101342.47;;;11.06;100.00
35806;BME280;21925;44.608;11.580;2023-04-26T02:59:49;101346.53;;;11.20;100.00
35806;BME280;21925;44.608;11.580;2023-04-26T03:02:15;101342.38;;;11.14;97.78
35806;BME280;21925;44.608;11.580;2023-04-26T03:04:41;101344.59;;;11.21;96.81
35806;BME280;21925;44.608;11.580;2023-04-26T03:07:06;101341.78;;;11.09;95.96
35806;BME280;21925;44.608;11.580;2023-04-26T03:09:32;101340.75;;;10.81;98.84
35806;BME280;21925;44.608;11.580;2023-04-26T03:11:59;101317.59;;;10.91;98.87
35806;BME280;21925;44.608;11.580;2023-04-26T03:14:25;101342.06;;;10.96;99.82
35806;BME280;21925;44.608;11.580;2023-04-26T03:16:52;101348.75;;;10.86;100.00
35806;BME280;21925;44.608;11.580;2023-04-26T03:19:18;101332.81;;;10.59;100.00
35806;BME280;21925;44.608;11.580;2023-04-26T03:21:44;101333.75;;;10.34;100.00
35806;BME280;21925;44.608;11.580;2023-04-26T03:24:10;101330.38;;;10.37;100.00
35806;BME280;21925;44.608;11.580;2023-04-26T03:26:36;101343.63;;;10.56;100.00
35806;BME280;21925;44.608;11.580;2023-04-26T03:29:02;101351.53;;;10.29;100.00
35806;BME280;21925;44.608;11.580;2023-04-26T03:31:28;101340.97;;;10.47;100.00
35806;BME280;21925;44.608;11.580;2023-04-26T03:33:53;101342.78;;;10.64;100.00
35806;BME280;21925;44.608;11.580;2023-04-26T03:36:19;101353.72;;;10.72;100.00
35806;BME280;21925;44.608;11.580;2023-04-26T03:38:45;101355.75;;;10.55;100.00
35806;BME280;21925;44.608;11.580;2023-04-26T03:41:12;101366.16;;;10.70;99.25
35806;BME280;21925;44.608;11.580;2023-04-26T03:43:37;101370.16;;;10.72;96.29
35806;BME280;21925;44.608;11.580;2023-04-26T03:46:04;101366.28;;;10.73;95.02
35806;BME280;21925;44.608;11.580;2023-04-26T03:48:30;101378.47;;;10.84;95.16
35806;BME280;21925;44.608;11.580;2023-04-26T03:50:55;101377.84;;;10.79;94.66
35806;BME280;21925;44.608;11.580;2023-04-26T03:53:21;101374.94;;;10.84;94.03
35806;BME280;21925;44.608;11.580;2023-04-26T03:55:47;101377.81;;;10.87;91.77
35806;BME280;21925;44.608;11.580;2023-04-26T03:58:13;101383.94;;;10.84;92.45
35806;BME280;21925;44.608;11.580;2023-04-26T04:00:39;101393.59;;;10.70;93.83
35806;BME280;21925;44.608;11.580;2023-04-26T04:03:06;101384.63;;;10.81;91.41
35806;BME280;21925;44.608;11.580;2023-04-26T04:05:32;101394.63;;;10.77;93.58
35806;BME280;21925;44.608;11.580;2023-04-26T04:07:58;101395.84;;;10.68;96.13
35806;BME280;21925;44.608;11.580;2023-04-26T04:10:24;101390.31;;;10.47;95.58
35806;BME280;21925;44.608;11.580;2023-04-26T04:12:50;101405.16;;;10.46;95.45
35806;BME280;21925;44.608;11.580;2023-04-26T04:15:18;101415.63;;;10.44;94.56
35806;BME280;21925;44.608;11.580;2023-04-26T04:17:46;101419.34;;;10.48;94.35
35806;BME280;21925;44.608;11.580;2023-04-26T04:20:12;101409.25;;;10.32;94.33
35806;BME280;21925;44.608;11.580;2023-04-26T04:22:38;101414.41;;;10.33;95.01
35806;BME280;21925;44.608;11.580;2023-04-26T04:25:08;101402.28;;;10.34;92.98
35806;BME280;21925;44.608;11.580;2023-04-26T04:27:35;101421.59;;;10.46;91.22
35806;BME280;21925;44.608;11.580;2023-04-26T04:30:04;101425.88;;;10.27;92.62
35806;BME280;21925;44.608;11.580;2023-04-26T04:32:32;101424.31;;;10.18;93.74
35806;BME280;21925;44.608;11.580;2023-04-26T04:34:58;101414.66;;;9.95;94.17
35806;BME280;21925;44.608;11.580;2023-04-26T04:37:24;101437.88;;;10.06;94.56
35806;BME280;21925;44.608;11.580;2023-04-26T04:39:51;101433.72;;;10.00;93.66
35806;BME280;21925;44.608;11.580;2023-04-26T04:42:17;101445.91;;;10.19;94.38
35806;BME280;21925;44.608;11.580;2023-04-26T04:44:43;101416.97;;;9.76;95.57
35806;BME280;21925;44.608;11.580;2023-04-26T04:47:11;101449.78;;;10.10;95.97
35806;BME280;21925;44.608;11.580;2023-04-26T04:49:37;101462.69;;;10.18;95.25
35806;BME280;21925;44.608;11.580;2023-04-26T04:52:04;101468.94;;;10.18;96.80
35806;BME280;21925;44.608;11.580;2023-04-26T04:54:31;101451.03;;;10.21;96.39
35806;BME280;21925;44.608;11.580;2023-04-26T04:56:57;101463.34;;;10.52;95.18
35806;BME280;21925;44.608;11.580;2023-04-26T04:59:23;101453.44;;;10.68;93.42
35806;BME280;21925;44.608;11.580;2023-04-26T05:01:49;101449.69;;;10.72;93.87
35806;BME280;21925;44.608;11.580;2023-04-26T05:04:15;101474.16;;;10.86;93.92
35806;BME280;21925;44.608;11.580;2023-04-26T05:06:41;101465.78;;;10.82;94.72
35806;BME280;21925;44.608;11.580;2023-04-26T05:09:08;101479.38;;;10.99;94.65
35806;BME280;21925;44.608;11.580;2023-04-26T05:11:35;101481.34;;;10.99;95.16
35806;BME280;21925;44.608;11.580;2023-04-26T05:14:02;101469.09;;;10.96;95.73
35806;BME280;21925;44.608;11.580;2023-04-26T05:16:28;101488.63;;;11.15;95.24
35806;BME280;21925;44.608;11.580;2023-04-26T05:18:54;101484.31;;;11.14;97.05
35806;BME280;21925;44.608;11.580;2023-04-26T05:21:20;101477.97;;;11.22;95.60
35806;BME280;21925;44.608;11.580;2023-04-26T05:23:46;101496.84;;;11.44;95.34
35806;BME280;21925;44.608;11.580;2023-04-26T05:26:15;101506.78;;;11.57;96.49
35806;BME280;21925;44.608;11.580;2023-04-26T05:28:51;101511.97;;;11.58;96.49
35806;BME280;21925;44.608;11.580;2023-04-26T05:31:37;101511.22;;;11.70;96.93
35806;BME280;21925;44.608;11.580;2023-04-26T05:34:22;101488.41;;;11.49;99.48
35806;BME280;21925;44.608;11.580;2023-04-26T05:36:53;101525.16;;;11.65;100.00
35806;BME280;21925;44.608;11.580;2023-04-26T05:39:18;101523.81;;;11.71;100.00
35806;BME280;21925;44.608;11.580;2023-04-26T05:41:46;101515.25;;;11.72;100.00
35806;BME280;21925;44.608;11.580;2023-04-26T05:44:12;101517.50;;;11.70;100.00
35806;BME280;21925;44.608;11.580;2023-04-26T05:46:39;101531.00;;;11.95;100.00
35806;BME280;21925;44.608;11.580;2023-04-26T05:49:06;101521.88;;;12.03;100.00
35806;BME280;21925;44.608;11.580;2023-04-26T05:51:32;101531.31;;;12.02;100.00
35806;BME280;21925;44.608;11.580;2023-04-26T05:53:58;101532.41;;;12.22;100.00
35806;BME280;21925;44.608;11.580;2023-04-26T05:56:23;101536.94;;;12.50;100.00
35806;BME280;21925;44.608;11.580;2023-04-26T05:58:50;101536.53;;;12.84;100.00
35806;BME280;21925;44.608;11.580;2023-04-26T06:01:17;101534.44;;;12.69;100.00
35806;BME280;21925;44.608;11.580;2023-04-26T06:03:46;101552.91;;;12.80;100.00
35806;BME280;21925;44.608;11.580;2023-04-26T06:06:13;101532.63;;;12.73;100.00
35806;BME280;21925;44.608;11.580;2023-04-26T06:08:41;101545.94;;;12.83;100.00
35806;BME280;21925;44.608;11.580;2023-04-26T06:11:09;101544.25;;;13.02;100.00
35806;BME280;21925;44.608;11.580;2023-04-26T06:13:34;101553.09;;;13.08;100.00
35806;BME280;21925;44.608;11.580;2023-04-26T06:16:00;101543.44;;;13.26;100.00
35806;BME280;21925;44.608;11.580;2023-04-26T06:18:25;101545.50;;;13.41;100.00
35806;BME280;21925;44.608;11.580;2023-04-26T06:20:51;101538.97;;;13.33;100.00
35806;BME280;21925;44.608;11.580;2023-04-26T06:23:17;101561.19;;;13.64;100.00
35806;BME280;21925;44.608;11.580;2023-04-26T06:25:42;101558.00;;;13.89;100.00
35806;BME280;21925;44.608;11.580;2023-04-26T06:28:13;101559.50;;;13.87;100.00
35806;BME280;21925;44.608;11.580;2023-04-26T06:30:38;101560.47;;;14.06;100.00
35806;BME280;21925;44.608;11.580;2023-04-26T06:33:04;101553.88;;;13.95;100.00
35806;BME280;21925;44.608;11.580;2023-04-26T06:35:31;101566.88;;;14.22;100.00
35806;BME280;21925;44.608;11.580;2023-04-26T06:37:57;101551.31;;;14.02;100.00
35806;BME280;21925;44.608;11.580;2023-04-26T06:40:24;101552.38;;;13.98;100.00
35806;BME280;21925;44.608;11.580;2023-04-26T06:42:49;101547.53;;;14.34;100.00
35806;BME280;21925;44.608;11.580;2023-04-26T06:45:17;101545.88;;;14.91;97.73
35806;BME280;21925;44.608;11.580;2023-04-26T06:47:44;101555.06;;;14.80;98.85
35806;BME280;21925;44.608;11.580;2023-04-26T06:50:10;101566.81;;;14.92;96.94
35806;BME280;21925;44.608;11.580;2023-04-26T06:52:35;101564.41;;;14.75;93.18
35806;BME280;21925;44.608;11.580;2023-04-26T06:55:01;101575.88;;;15.54;90.36
35806;BME280;21925;44.608;11.580;2023-04-26T06:57:28;101574.19;;;16.03;88.54
35806;BME280;21925;44.608;11.580;2023-04-26T06:59:53;101571.94;;;16.08;85.44
35806;BME280;21925;44.608;11.580;2023-04-26T07:02:19;101574.63;;;16.84;86.58
35806;BME280;21925;44.608;11.580;2023-04-26T07:04:44;101579.94;;;16.92;82.64
35806;BME280;21925;44.608;11.580;2023-04-26T07:07:11;101585.41;;;16.67;81.96
35806;BME280;21925;44.608;11.580;2023-04-26T07:09:36;101577.94;;;16.48;82.75
35806;BME280;21925;44.608;11.580;2023-04-26T07:12:02;101572.41;;;16.48;81.92
35806;BME280;21925;44.608;11.580;2023-04-26T07:14:28;101577.59;;;16.31;84.00
35806;BME280;21925;44.608;11.580;2023-04-26T07:16:53;101580.84;;;16.17;85.69
35806;BME280;21925;44.608;11.580;2023-04-26T07:19:19;101572.63;;;16.21;85.64
35806;BME280;21925;44.608;11.580;2023-04-26T07:21:44;101580.47;;;16.19;89.82
35806;BME280;21925;44.608;11.580;2023-04-26T07:24:10;101588.59;;;16.69;89.23
35806;BME280;21925;44.608;11.580;2023-04-26T07:26:38;101580.19;;;17.29;84.73
35806;BME280;21925;44.608;11.580;2023-04-26T07:29:03;101576.53;;;18.02;80.93
35806;BME280;21925;44.608;11.580;2023-04-26T07:31:30;101574.28;;;17.56;76.65
35806;BME280;21925;44.608;11.580;2023-04-26T07:33:56;101580.69;;;17.34;79.56
35806;BME280;21925;44.608;11.580;2023-04-26T07:36:22;101585.28;;;17.75;77.65
35806;BME280;21925;44.608;11.580;2023-04-26T07:38:48;101565.31;;;17.18;76.63
35806;BME280;21925;44.608;11.580;2023-04-26T07:41:17;101576.84;;;17.42;75.28
35806;BME280;21925;44.608;11.580;2023-04-26T07:43:46;101587.34;;;18.11;76.09
35806;BME280;21925;44.608;11.580;2023-04-26T07:46:13;101577.94;;;18.51;74.51
35806;BME280;21925;44.608;11.580;2023-04-26T07:48:39;101534.84;;;18.64;73.55
35806;BME280;21925;44.608;11.580;2023-04-26T07:51:10;101572.84;;;18.97;70.94
35806;BME280;21925;44.608;11.580;2023-04-26T07:53:37;101583.84;;;19.80;72.58
35806;BME280;21925;44.608;11.580;2023-04-26T07:56:03;101583.09;;;19.29;71.56
35806;BME280;21925;44.608;11.580;2023-04-26T07:58:30;101583.69;;;19.55;72.67
35806;BME280;21925;44.608;11.580;2023-04-26T08:00:57;101562.50;;;19.98;69.28
35806;BME280;21925;44.608;11.580;2023-04-26T08:03:23;101554.72;;;20.38;68.52
35806;BME280;21925;44.608;11.580;2023-04-26T08:05:49;101580.00;;;19.98;69.09
35806;BME280;21925;44.608;11.580;2023-04-26T08:08:15;101582.56;;;20.34;68.20
35806;BME280;21925;44.608;11.580;2023-04-26T08:10:41;101568.38;;;20.81;65.74
35806;BME280;21925;44.608;11.580;2023-04-26T08:13:07;101582.84;;;20.08;67.99
35806;BME280;21925;44.608;11.580;2023-04-26T08:15:33;101588.59;;;20.50;66.30
35806;BME280;21925;44.608;11.580;2023-04-26T08:17:58;101568.00;;;21.10;66.15
35806;BME280;21925;44.608;11.580;2023-04-26T08:20:24;101562.44;;;21.14;67.17
35806;BME280;21925;44.608;11.580;2023-04-26T08:22:54;101582.19;;;22.20;67.17
35806;BME280;21925;44.608;11.580;2023-04-26T08:25:21;101592.09;;;22.42;62.23
35806;BME280;21925;44.608;11.580;2023-04-26T08:27:47;101569.19;;;21.13;63.11
35806;BME280;21925;44.608;11.580;2023-04-26T08:30:12;101596.91;;;22.24;62.22
35806;BME280;21925;44.608;11.580;2023-04-26T08:32:38;101583.06;;;21.93;63.04
35806;BME280;21925;44.608;11.580;2023-04-26T08:35:04;101580.56;;;22.98;63.70
35806;BME280;21925;44.608;11.580;2023-04-26T08:37:30;101579.97;;;23.67;61.38
35806;BME280;21925;44.608;11.580;2023-04-26T08:39:55;101578.06;;;23.14;59.37
35806;BME280;21925;44.608;11.580;2023-04-26T08:42:25;101575.34;;;24.24;61.31
35806;BME280;21925;44.608;11.580;2023-04-26T08:44:52;101602.44;;;24.34;58.92
35806;BME280;21925;44.608;11.580;2023-04-26T08:47:28;101587.19;;;22.63;55.77
35806;BME280;21925;44.608;11.580;2023-04-26T08:49:57;101593.41;;;22.88;56.95
35806;BME280;21925;44.608;11.580;2023-04-26T08:52:29;101590.28;;;22.79;58.37
35806;BME280;21925;44.608;11.580;2023-04-26T08:54:56;101584.09;;;23.96;59.33
35806;BME280;21925;44.608;11.580;2023-04-26T08:57:23;101586.41;;;24.94;58.10
35806;BME280;21925;44.608;11.580;2023-04-26T08:59:49;101559.81;;;25.51;58.51
35806;BME280;21925;44.608;11.580;2023-04-26T09:02:20;101574.13;;;25.57;57.19
35806;BME280;21925;44.608;11.580;2023-04-26T09:04:47;101573.06;;;25.28;55.56
35806;BME280;21925;44.608;11.580;2023-04-26T09:07:34;101584.66;;;25.95;55.89
35806;BME280;21925;44.608;11.580;2023-04-26T09:10:03;101590.28;;;25.95;54.27
35806;BME280;21925;44.608;11.580;2023-04-26T09:12:29;101576.47;;;26.04;52.00
35806;BME280;21925;44.608;11.580;2023-04-26T09:14:54;101588.53;;;26.04;52.79
35806;BME280;21925;44.608;11.580;2023-04-26T09:17:36;101587.56;;;26.50;51.78
35806;BME280;21925;44.608;11.580;2023-04-26T09:20:23;101580.88;;;26.79;52.76
35806;BME280;21925;44.608;11.580;2023-04-26T09:22:52;101573.31;;;27.11;53.00
35806;BME280;21925;44.608;11.580;2023-04-26T09:25:27;101563.34;;;27.07;50.74
35806;BME280;21925;44.608;11.580;2023-04-26T09:27:53;101566.09;;;27.26;50.05
35806;BME280;21925;44.608;11.580;2023-04-26T09:30:20;101561.47;;;27.48;51.11
35806;BME280;21925;44.608;11.580;2023-04-26T09:35:39;101562.53;;;27.70;50.31
35806;BME280;21925;44.608;11.580;2023-04-26T09:38:15;101544.72;;;27.57;47.25
35806;BME280;21925;44.608;11.580;2023-04-26T09:40:47;101536.31;;;27.25;47.79
35806;BME280;21925;44.608;11.580;2023-04-26T09:43:14;101561.31;;;28.12;49.57
35806;BME280;21925;44.608;11.580;2023-04-26T09:45:57;101551.53;;;27.28;45.77
35806;BME280;21925;44.608;11.580;2023-04-26T09:51:09;101557.00;;;27.35;48.59
35806;BME280;21925;44.608;11.580;2023-04-26T09:53:48;101554.09;;;28.27;47.93
35806;BME280;21925;44.608;11.580;2023-04-26T09:56:18;101544.28;;;28.56;47.33
35806;BME280;21925;44.608;11.580;2023-04-26T10:01:18;101555.31;;;28.79;47.56
35806;BME280;21925;44.608;11.580;2023-04-26T10:03:44;101548.06;;;28.90;44.49
35806;BME280;21925;44.608;11.580;2023-04-26T10:06:15;101549.41;;;28.98;45.52
35806;BME280;21925;44.608;11.580;2023-04-26T10:08:41;101548.34;;;29.17;46.27
35806;BME280;21925;44.608;11.580;2023-04-26T10:11:06;101545.34;;;28.99;46.53
35806;BME280;21925;44.608;11.580;2023-04-26T10:13:34;101526.81;;;28.73;43.96
35806;BME280;21925;44.608;11.580;2023-04-26T10:16:00;101556.50;;;28.65;44.29
35806;BME280;21925;44.608;11.580;2023-04-26T10:18:26;101535.53;;;29.50;45.51
35806;BME280;21925;44.608;11.580;2023-04-26T10:20:55;101517.09;;;29.12;44.82
35806;BME280;21925;44.608;11.580;2023-04-26T10:23:23;101526.34;;;29.12;45.49
35806;BME280;21925;44.608;11.580;2023-04-26T10:25:52;101526.22;;;29.15;44.13
35806;BME280;21925;44.608;11.580;2023-04-26T10:31:09;101498.44;;;29.60;46.04
35806;BME280;21925;44.608;11.580;2023-04-26T10:33:35;101524.63;;;30.46;46.91
35806;BME280;21925;44.608;11.580;2023-04-26T10:38:31;101531.81;;;30.08;43.83
35806;BME280;21925;44.608;11.580;2023-04-26T10:43:59;101515.22;;;29.97;42.69
35806;BME280;21925;44.608;11.580;2023-04-26T10:46:37;101517.09;;;29.79;41.47
35806;BME280;21925;44.608;11.580;2023-04-26T10:49:13;101507.41;;;30.01;43.20
35806;BME280;21925;44.608;11.580;2023-04-26T10:51:40;101515.47;;;30.33;42.07
35806;BME280;21925;44.608;11.580;2023-04-26T10:54:06;101457.81;;;30.09;42.50
35806;BME280;21925;44.608;11.580;2023-04-26T10:59:08;101489.22;;;30.42;39.96
35806;BME280;21925;44.608;11.580;2023-04-26T11:01:34;101485.72;;;30.50;42.89
35806;BME280;21925;44.608;11.580;2023-04-26T11:04:05;101511.72;;;31.06;42.89
35806;BME280;21925;44.608;11.580;2023-04-26T11:06:50;101504.69;;;30.80;43.31
35806;BME280;21925;44.608;11.580;2023-04-26T11:09:36;101491.44;;;30.68;41.26
35806;BME280;21925;44.608;11.580;2023-04-26T11:12:21;101499.94;;;31.25;42.20
35806;BME280;21925;44.608;11.580;2023-04-26T11:14:46;101488.91;;;30.61;39.21
35806;BME280;21925;44.608;11.580;2023-04-26T11:17:12;101477.13;;;31.47;42.07
35806;BME280;21925;44.608;11.580;2023-04-26T11:19:39;101467.59;;;30.96;40.06
35806;BME280;21925;44.608;11.580;2023-04-26T11:22:06;101469.84;;;31.01;39.11
35806;BME280;21925;44.608;11.580;2023-04-26T11:24:34;101482.47;;;31.45;41.74
35806;BME280;21925;44.608;11.580;2023-04-26T11:27:07;101477.00;;;31.68;42.65
35806;BME280;21925;44.608;11.580;2023-04-26T11:29:34;101442.16;;;31.67;41.14
35806;BME280;21925;44.608;11.580;2023-04-26T11:31:59;101460.72;;;31.06;37.18
35806;BME280;21925;44.608;11.580;2023-04-26T11:34:35;101469.91;;;31.81;41.71
35806;BME280;21925;44.608;11.580;2023-04-26T11:37:06;101448.22;;;32.20;40.29
35806;BME280;21925;44.608;11.580;2023-04-26T11:39:33;101465.34;;;32.43;38.77
35806;BME280;21925;44.608;11.580;2023-04-26T11:42:25;101469.22;;;32.54;39.89
35806;BME280;21925;44.608;11.580;2023-04-26T11:44:52;101449.91;;;32.35;39.44
35806;BME280;21925;44.608;11.580;2023-04-26T11:47:18;101450.22;;;31.78;42.08
35806;BME280;21925;44.608;11.580;2023-04-26T11:49:45;101437.75;;;31.66;39.71
35806;BME280;21925;44.608;11.580;2023-04-26T11:52:10;101448.16;;;31.61;41.26
35806;BME280;21925;44.608;11.580;2023-04-26T11:54:36;101463.13;;;32.47;39.84
35806;BME280;21925;44.608;11.580;2023-04-26T11:57:15;101458.91;;;32.34;39.22
35806;BME280;21925;44.608;11.580;2023-04-26T11:59:41;101450.16;;;32.55;37.76
35806;BME280;21925;44.608;11.580;2023-04-26T12:02:08;101458.72;;;31.69;38.51
35806;BME280;21925;44.608;11.580;2023-04-26T12:04:34;101441.81;;;31.83;39.23
35806;BME280;21925;44.608;11.580;2023-04-26T12:07:02;101447.22;;;31.37;37.63
35806;BME280;21925;44.608;11.580;2023-04-26T12:09:29;101444.53;;;30.28;36.80
35806;BME280;21925;44.608;11.580;2023-04-26T12:12:02;101448.66;;;31.59;42.59
35806;BME280;21925;44.608;11.580;2023-04-26T12:14:35;101439.13;;;31.98;42.04
35806;BME280;21925;44.608;11.580;2023-04-26T12:17:02;101442.09;;;32.03;41.11
35806;BME280;21925;44.608;11.580;2023-04-26T12:19:32;101432.78;;;32.03;39.53
35806;BME280;21925;44.608;11.580;2023-04-26T12:21:58;101421.38;;;31.53;38.01
35806;BME280;21925;44.608;11.580;2023-04-26T12:24:25;101423.78;;;31.54;39.29
35806;BME280;21925;44.608;11.580;2023-04-26T12:26:54;101433.22;;;31.69;39.83
35806;BME280;21925;44.608;11.580;2023-04-26T12:29:19;101427.00;;;32.06;38.56
35806;BME280;21925;44.608;11.580;2023-04-26T12:31:45;101425.16;;;31.23;37.10
35806;BME280;21925;44.608;11.580;2023-04-26T12:34:11;101416.00;;;30.92;40.20
35806;BME280;21925;44.608;11.580;2023-04-26T12:36:39;101422.63;;;31.43;40.42
35806;BME280;21925;44.608;11.580;2023-04-26T12:39:05;101418.53;;;31.44;39.89
35806;BME280;21925;44.608;11.580;2023-04-26T12:41:31;101422.50;;;31.19;39.36
35806;BME280;21925;44.608;11.580;2023-04-26T12:43:56;101404.63;;;30.74;36.36
35806;BME280;21925;44.608;11.580;2023-04-26T12:46:22;101416.72;;;30.75;37.94
35806;BME280;21925;44.608;11.580;2023-04-26T12:48:48;101416.00;;;30.92;40.16
35806;BME280;21925;44.608;11.580;2023-04-26T12:51:13;101420.44;;;31.20;38.32
35806;BME280;21925;44.608;11.580;2023-04-26T12:53:39;101421.22;;;31.38;38.26
35806;BME280;21925;44.608;11.580;2023-04-26T12:56:05;101426.69;;;31.95;41.49
35806;BME280;21925;44.608;11.580;2023-04-26T12:58:31;101422.91;;;31.98;39.78